Time;durP1;ratioP1;P1;durP2;ratioP2;P2;SDS_P1;SDS_P2;PMS_P1;PMS_P2;Temp;Humidity;BMP_temperature;BMP_pressure;BME280_temperature;BME280_humidity;BME280_pressure;Samples;Min_cycle;Max_cycle;Signal;HPM_P1;HPM_P2
2021/07/28 00:01:27;;;;;;;23.40;12.75;;;;;;;19.01;66.88;99935.55;1942466;91;27747;-65
2021/07/28 00:04:35;;;;;;;15.43;11.18;;;;;;;18.97;67.01;99938.53;1942362;91;28670;-65
2021/07/28 00:07:42;;;;;;;13.45;10.18;;;;;;;18.95;67.05;99926.08;1942359;91;31038;-65
2021/07/28 00:10:46;;;;;;;20.08;10.00;;;;;;;18.93;67.01;99924.84;1942002;91;33030;-65
2021/07/28 00:13:51;;;;;;;18.45;10.80;;;;;;;18.91;66.63;99919.20;1942467;91;29339;-65
2021/07/28 00:16:56;;;;;;;17.20;10.78;;;;;;;18.87;67.32;99917.76;1942607;91;27922;-65
2021/07/28 00:20:19;;;;;;;16.77;10.32;;;;;;;18.85;67.44;99907.54;1943070;91;28669;-65
2021/07/28 00:23:16;;;;;;;17.95;11.53;;;;;;;18.81;67.52;99911.88;1943324;90;32470;-65
2021/07/28 00:26:25;;;;;;;20.48;11.93;;;;;;;18.77;67.79;99909.59;1924934;91;32973;-66
2021/07/28 00:29:36;;;;;;;17.60;10.18;;;;;;;18.65;67.56;99889.36;1942362;91;29338;-66
2021/07/28 00:32:44;;;;;;;14.53;10.43;;;;;;;18.70;67.51;99898.95;1942022;91;27997;-65
2021/07/28 00:35:54;;;;;;;14.68;9.90;;;;;;;18.66;67.36;99893.80;1941980;90;28664;-65
2021/07/28 00:39:02;;;;;;;13.70;11.10;;;;;;;18.64;67.63;99890.84;1990289;89;31279;-65
2021/07/28 00:42:10;;;;;;;18.50;11.63;;;;;;;18.60;67.67;99897.05;1990454;88;33044;-65
2021/07/28 00:45:21;;;;;;;14.55;10.63;;;;;;;18.56;67.74;99898.31;1966677;89;29019;-65
2021/07/28 00:48:35;;;;;;;13.83;11.43;;;;;;;18.52;67.85;99896.90;1982539;89;27804;-65
2021/07/28 00:51:48;;;;;;;18.32;11.88;;;;;;;18.49;67.97;99893.95;1926236;92;29129;-65
2021/07/28 00:54:52;;;;;;;15.00;11.50;;;;;;;18.45;67.92;99888.94;1952274;90;31239;-65
2021/07/28 00:57:58;;;;;;;20.00;12.85;;;;;;;18.42;68.37;99889.20;1908237;92;35670;-65
2021/07/28 01:01:02;;;;;;;24.02;12.05;;;;;;;18.37;68.69;99880.98;1952183;90;29506;-65
2021/07/28 01:04:07;;;;;;;23.52;12.28;;;;;;;18.36;68.67;99877.06;1926538;92;27903;-66
2021/07/28 01:07:11;;;;;;;;;;;;;;;18.34;68.73;99883.98;1954655;90;28668;-65
2021/07/28 01:10:17;;;;;;;21.12;12.60;;;;;;;18.28;68.91;99878.26;1952193;90;31080;-65
2021/07/28 01:13:30;;;;;;;16.85;11.15;;;;;;;18.26;68.64;99879.73;1924844;92;32906;-66
2021/07/28 01:16:43;;;;;;;14.68;10.88;;;;;;;18.26;68.64;99879.73;1948893;90;30098;-66
2021/07/28 01:19:56;;;;;;;17.55;12.47;;;;;;;18.26;69.00;99881.09;1923650;90;27919;-66
2021/07/28 01:23:10;;;;;;;20.25;12.93;;;;;;;18.27;69.04;99875.19;1949102;90;28707;-66
2021/07/28 01:26:34;;;;;;;20.52;11.65;;;;;;;18.28;68.81;99883.68;1949002;91;31104;-65
2021/07/28 01:29:38;;;;;;;16.25;10.72;;;;;;;18.28;68.81;99883.68;1923561;92;32991;-65
2021/07/28 01:32:46;;;;;;;17.80;11.03;;;;;;;18.28;68.79;99880.97;1949182;90;29370;-65
2021/07/28 01:35:50;;;;;;;18.85;12.43;;;;;;;18.27;68.79;99885.52;1922537;92;28000;-66
2021/07/28 01:38:58;;;;;;;19.02;11.97;;;;;;;18.25;68.95;99876.66;1914073;90;28657;-66
2021/07/28 01:42:04;;;;;;;16.82;11.93;;;;;;;18.23;69.21;99884.06;1934640;90;31113;-66
2021/07/28 01:45:14;;;;;;;18.15;12.33;;;;;;;18.17;69.03;99877.34;1926186;92;33026;-65
2021/07/28 01:48:20;;;;;;;19.80;12.45;;;;;;;18.21;69.20;99877.91;1950496;90;29322;-65
2021/07/28 01:51:24;;;;;;;16.75;11.63;;;;;;;18.18;69.21;99862.79;1915522;92;27889;-65
2021/07/28 01:54:28;;;;;;;19.55;12.85;;;;;;;18.18;69.21;99862.79;1963009;90;28775;-65
2021/07/28 01:57:36;;;;;;;21.20;13.22;;;;;;;18.15;69.72;99867.12;1915821;92;31136;-66
2021/07/28 02:00:41;;;;;;;21.62;12.47;;;;;;;18.12;69.57;99859.77;1930743;91;32973;-66
2021/07/28 02:03:47;;;;;;;20.68;13.20;;;;;;;18.11;69.38;99857.56;1915761;92;29405;-66
2021/07/28 02:06:54;;;;;;;17.62;12.58;;;;;;;18.09;69.04;99851.42;1931002;91;27724;-66
2021/07/28 02:10:04;;;;;;;14.73;12.28;;;;;;;18.08;69.36;99853.77;1915320;92;28663;-67
2021/07/28 02:13:11;;;;;;;17.82;11.93;;;;;;;18.06;69.29;99864.73;1962705;90;31045;-66
2021/07/28 02:16:14;;;;;;;17.20;12.10;;;;;;;17.91;69.42;99851.14;1918415;92;33017;-66
2021/07/28 02:19:18;;;;;;;18.95;12.23;;;;;;;17.91;69.42;99851.14;1965738;90;29333;-67
2021/07/28 02:22:20;;;;;;;20.17;12.10;;;;;;;18.01;69.43;99865.66;1918978;92;27725;-67
2021/07/28 02:25:22;;;;;;;20.23;11.05;;;;;;;17.98;69.66;99855.55;1965867;90;28647;-67
2021/07/28 02:28:24;;;;;;;17.00;11.43;;;;;;;17.96;69.72;99853.44;1918907;92;31029;-67
2021/07/28 02:31:27;;;;;;;15.55;11.73;;;;;;;17.87;69.38;99846.50;1933924;91;32908;-67
2021/07/28 02:34:34;;;;;;;16.73;12.23;;;;;;;18.02;69.73;99871.92;1918589;92;29432;-67
2021/07/28 02:37:36;;;;;;;17.05;12.28;;;;;;;18.02;69.73;99871.92;1965879;90;27816;-67
2021/07/28 02:40:39;;;;;;;20.40;13.48;;;;;;;18.03;70.00;99856.89;1918464;92;28666;-67
2021/07/28 02:43:44;;;;;;;21.95;13.00;;;;;;;18.03;70.00;99856.89;1930629;91;31147;-68
2021/07/28 02:46:46;;;;;;;24.80;13.30;;;;;;;18.04;70.03;99856.38;1918755;92;32975;-67
2021/07/28 02:49:48;;;;;;;19.90;12.82;;;;;;;18.02;70.01;99861.08;1965082;89;29380;-67
2021/07/28 02:52:51;;;;;;;20.40;13.05;;;;;;;17.98;69.92;99856.91;1918489;92;27785;-65
2021/07/28 02:55:53;;;;;;;17.30;12.70;;;;;;;18.01;69.88;99864.78;1965356;90;28709;-67
2021/07/28 02:58:56;;;;;;;18.20;12.25;;;;;;;17.86;69.81;99841.23;1901674;92;31015;-67
2021/07/28 03:01:59;;;;;;;20.80;13.20;;;;;;;17.97;69.76;99870.94;1965408;90;32965;-67
2021/07/28 03:05:04;;;;;;;17.20;12.55;;;;;;;17.90;69.82;99861.14;1918248;91;30146;-66
2021/07/28 03:08:09;;;;;;;18.05;12.07;;;;;;;17.90;69.82;99861.14;1965473;90;27797;-67
2021/07/28 03:11:12;;;;;;;17.00;11.95;;;;;;;17.87;69.89;99863.27;1918655;92;28675;-65
2021/07/28 03:14:14;;;;;;;16.55;13.28;;;;;;;17.71;70.05;99839.35;1965439;90;31055;-66
2021/07/28 03:17:18;;;;;;;16.67;12.18;;;;;;;17.81;70.22;99852.95;1918519;92;33002;-66
2021/07/28 03:20:21;;;;;;;19.52;12.35;;;;;;;17.81;70.29;99851.60;1965199;90;29345;-67
2021/07/28 03:23:24;;;;;;;22.75;12.53;;;;;;;17.81;70.36;99849.73;1918708;92;27881;-66
2021/07/28 03:26:30;;;;;;;22.65;12.60;;;;;;;17.79;70.29;99841.39;1966025;90;28633;-66
2021/07/28 03:29:31;;;;;;;21.07;12.90;;;;;;;17.79;70.29;99841.39;1964834;89;31248;-66
2021/07/28 03:32:33;;;;;;;16.60;12.40;;;;;;;17.81;70.35;99843.47;1918237;92;33058;-67
2021/07/28 03:35:36;;;;;;;16.73;11.90;;;;;;;17.79;70.29;99842.75;1965705;90;29345;-66
2021/07/28 03:38:38;;;;;;;19.05;11.43;;;;;;;17.79;70.29;99842.75;1918604;92;27902;-68
2021/07/28 03:41:41;;;;;;;14.15;11.33;;;;;;;17.80;70.43;99848.53;1965449;90;28690;-66
2021/07/28 03:44:44;;;;;;;16.52;11.70;;;;;;;17.83;70.48;99845.55;1918432;92;31086;-64
2021/07/28 03:47:46;;;;;;;19.55;12.00;;;;;;;17.88;70.50;99846.86;1965757;90;33004;-67
2021/07/28 03:50:49;;;;;;;18.85;12.37;;;;;;;17.95;70.63;99843.11;1925586;89;29341;-67
2021/07/28 03:53:51;;;;;;;17.32;11.90;;;;;;;18.22;70.77;99843.91;1955174;90;27869;-65
2021/07/28 03:56:53;;;;;;;23.15;15.23;;;;;;;18.22;70.77;99843.91;1910794;92;28671;-65
2021/07/28 03:59:57;;;;;;;20.88;13.90;;;;;;;18.56;70.49;99833.72;1955136;90;31055;-66
2021/07/28 04:02:59;;;;;;;17.42;12.20;;;;;;;18.56;70.49;99833.72;1929465;92;33031;-64
2021/07/28 04:06:01;;;;;;;19.98;13.35;;;;;;;18.73;70.29;99848.45;1955186;90;29328;-66
2021/07/28 04:09:04;;;;;;;18.42;12.73;;;;;;;18.88;70.13;99846.20;1929369;92;27844;-65
2021/07/28 04:12:08;;;;;;;18.77;12.80;;;;;;;19.03;69.88;99848.87;1955238;90;28668;-66
2021/07/28 04:15:35;;;;;;;17.15;12.53;;;;;;;19.16;69.63;99842.30;1929609;92;31048;-66
2021/07/28 04:18:37;;;;;;;21.80;11.60;;;;;;;19.30;69.45;99835.59;1942209;90;30525;-66
2021/07/28 04:21:39;;;;;;;22.20;12.28;;;;;;;19.43;69.16;99831.58;1928445;92;27994;-68
2021/07/28 04:24:47;;;;;;;17.37;10.40;;;;;;;19.56;68.83;99827.69;1954732;90;27704;-66
2021/07/28 04:27:53;;;;;;;16.17;11.28;;;;;;;19.66;68.42;99828.50;1929181;92;28675;-66
2021/07/28 04:30:55;;;;;;;19.87;11.57;;;;;;;19.76;68.28;99831.20;1953979;90;31058;-67
2021/07/28 04:33:58;;;;;;;17.85;11.65;;;;;;;19.96;68.24;99829.30;1928760;92;33448;-67
2021/07/28 04:37:02;;;;;;;15.63;10.85;;;;;;;20.12;67.87;99827.80;1954792;90;29385;-66
2021/07/28 04:40:07;;;;;;;17.52;11.88;;;;;;;20.46;67.13;99829.44;1929228;92;27746;-65
2021/07/28 04:43:09;;;;;;;;;;;;;;;20.46;67.13;99829.44;1957548;89;28688;-66
2021/07/28 04:46:11;;;;;;;16.65;11.38;;;;;;;20.55;67.16;99833.11;1955012;90;31047;-65
2021/07/28 04:49:14;;;;;;;14.63;11.18;;;;;;;20.59;66.66;99831.80;1928817;92;33632;-67
2021/07/28 04:52:26;;;;;;;15.20;8.83;;;;;;;20.59;66.48;99831.80;1934804;90;29426;-66
2021/07/28 04:55:35;;;;;;;14.97;11.30;;;;;;;20.65;66.34;99828.97;1953102;90;27921;-66
2021/07/28 04:58:38;;;;;;;16.10;10.85;;;;;;;20.73;66.31;99825.47;1929190;92;28657;-67
2021/07/28 05:01:42;;;;;;;15.78;10.63;;;;;;;21.08;66.41;99816.48;1954876;90;31046;-66
2021/07/28 05:05:11;;;;;;;16.52;10.93;;;;;;;21.54;66.02;99825.00;1910905;92;33074;-70
2021/07/28 05:08:00;;;;;;;22.22;11.60;;;;;;;21.99;65.63;99820.38;1945445;90;35144;-71
2021/07/28 05:11:04;;;;;;;16.62;10.23;;;;;;;22.64;64.69;99812.64;1928798;92;27880;-76
2021/07/28 05:14:08;;;;;;;19.67;11.08;;;;;;;23.44;64.06;99805.21;1955229;89;28755;-77
2021/07/28 05:17:13;;;;;;;19.27;10.48;;;;;;;24.20;62.85;99798.53;1929017;92;31079;-78
2021/07/28 05:20:18;;;;;;;17.80;9.88;;;;;;;24.55;61.72;99805.89;1954654;90;33032;-79
2021/07/28 05:23:22;;;;;;;15.93;10.63;;;;;;;24.71;61.03;99801.72;1955058;90;29336;-76
2021/07/28 05:26:26;;;;;;;16.70;10.82;;;;;;;24.75;59.99;99804.94;1929222;92;27977;-76
2021/07/28 05:29:45;;;;;;;20.23;11.22;;;;;;;24.81;60.09;99797.38;1955328;89;33759;-77
2021/07/28 05:32:43;;;;;;;24.23;11.75;;;;;;;24.81;59.38;99811.61;1947072;90;28613;-77
2021/07/28 05:35:55;;;;;;;17.90;10.93;;;;;;;24.72;59.40;99809.44;1929257;92;33031;-66
2021/07/28 05:39:01;;;;;;;13.88;11.12;;;;;;;25.02;59.37;99816.41;1952481;90;29351;-66
2021/07/28 05:42:08;;;;;;;19.95;11.20;;;;;;;25.51;58.93;99816.53;1926974;92;27978;-66
2021/07/28 05:45:13;;;;;;;19.30;10.72;;;;;;;25.86;57.89;99811.37;1952438;90;28705;-66
2021/07/28 05:48:16;;;;;;;15.15;10.45;;;;;;;26.22;57.52;99812.02;1929331;92;31170;-66
2021/07/28 05:51:18;;;;;;;17.10;11.45;;;;;;;26.36;56.24;99811.68;1942880;90;33049;-65
2021/07/28 05:54:23;;;;;;;21.10;11.33;;;;;;;26.41;55.73;99809.72;1915917;92;29385;-66
2021/07/28 05:57:26;;;;;;;15.10;11.00;;;;;;;26.40;55.80;99805.27;1965804;90;28025;-67
2021/07/28 06:00:30;;;;;;;14.53;11.15;;;;;;;26.52;55.80;99802.88;1918683;92;28662;-66
2021/07/28 06:03:39;;;;;;;27.85;11.03;;;;;;;26.60;55.28;99804.66;1962295;90;31211;-67
2021/07/28 06:06:41;;;;;;;18.23;10.30;;;;;;;26.56;55.30;99800.59;1918791;92;32991;-66
2021/07/28 06:10:02;;;;;;;24.27;12.37;;;;;;;26.63;55.06;99801.00;1931141;91;29341;-69
2021/07/28 06:13:06;;;;;;;19.00;10.72;;;;;;;26.66;55.01;99799.24;1933409;91;36259;-70
2021/07/28 06:16:08;;;;;;;18.70;10.82;;;;;;;26.76;54.79;99792.56;1918838;92;28689;-69
2021/07/28 06:19:11;;;;;;;18.82;11.10;;;;;;;26.99;54.50;99793.27;1965889;90;31052;-66
2021/07/28 06:22:13;;;;;;;15.45;11.53;;;;;;;27.31;53.55;99794.28;1901663;92;33076;-66
2021/07/28 06:25:16;;;;;;;16.35;11.08;;;;;;;27.61;53.02;99795.52;1965835;90;29427;-65
2021/07/28 06:28:18;;;;;;;17.87;11.68;;;;;;;28.13;53.46;99791.10;1918989;92;27801;-66
2021/07/28 06:31:21;;;;;;;22.27;11.60;;;;;;;28.93;52.28;99798.80;1965573;90;28743;-66
2021/07/28 06:34:23;;;;;;;27.87;11.05;;;;;;;29.82;51.84;99799.45;1918947;92;31697;-67
2021/07/28 06:37:25;;;;;;;24.27;10.70;;;;;;;30.20;50.39;99801.19;1965762;90;32976;-67
2021/07/28 06:40:27;;;;;;;19.87;10.40;;;;;;;30.64;50.19;99806.44;1918866;92;29386;-66
2021/07/28 06:43:29;;;;;;;18.67;9.45;;;;;;;31.28;49.40;99810.61;1986760;88;27734;-66
2021/07/28 06:46:34;;;;;;;14.53;8.68;;;;;;;31.80;48.54;99811.79;1965798;90;28668;-65
2021/07/28 06:49:40;;;;;;;20.68;8.68;;;;;;;32.43;47.47;99811.20;1962632;90;31094;-66
2021/07/28 06:52:45;;;;;;;19.30;9.85;;;;;;;33.10;46.44;99806.64;1959925;88;33147;-66
2021/07/28 06:55:53;;;;;;;19.62;9.05;;;;;;;33.71;45.02;99808.44;1962840;90;29359;-66
2021/07/28 06:59:01;;;;;;;10.75;8.45;;;;;;;34.15;44.44;99810.32;1959042;90;27967;-64
2021/07/28 07:02:06;;;;;;;14.13;8.40;;;;;;;34.45;43.43;99798.70;1959248;90;28643;-66
2021/07/28 07:05:11;;;;;;;16.25;8.83;;;;;;;34.89;42.66;99803.19;1962790;90;31039;-65
2021/07/28 07:08:13;;;;;;;12.98;8.60;;;;;;;35.48;41.60;99793.66;1962413;90;32979;-65
2021/07/28 07:11:15;;;;;;;19.95;8.88;;;;;;;36.02;40.94;99793.63;1962403;90;29390;-65
2021/07/28 07:14:21;;;;;;;14.25;8.00;;;;;;;36.42;39.81;99789.66;1962984;90;27895;-65
2021/07/28 07:17:29;;;;;;;11.15;8.05;;;;;;;36.87;38.66;99788.23;1960164;90;28672;-65
2021/07/28 07:20:34;;;;;;;10.48;7.67;;;;;;;37.01;38.90;99786.72;1960115;90;31049;-66
2021/07/28 07:23:40;;;;;;;10.08;7.78;;;;;;;37.25;37.15;99784.41;1963369;90;34014;-65
2021/07/28 07:26:43;;;;;;;12.05;8.00;;;;;;;37.00;37.33;99784.17;1963494;90;29514;-64
2021/07/28 07:29:48;;;;;;;15.23;8.40;;;;;;;36.54;36.77;99783.97;1963848;90;27552;-65
2021/07/28 07:36:19;;;;;;;9.38;7.95;;;;;;;36.02;36.89;99776.91;1960389;90;31649;-65
2021/07/28 07:39:24;;;;;;;28.05;12.30;;;;;;;35.74;37.11;99785.13;1960657;90;32968;-65
2021/07/28 07:42:28;;;;;;;13.90;7.92;;;;;;;35.66;37.07;99784.73;1926679;92;29338;-65
2021/07/28 07:45:35;;;;;;;16.48;8.25;;;;;;;35.93;36.93;99779.80;1952503;90;27969;-64
2021/07/28 07:48:41;;;;;;;107.63;48.02;;;;;;;36.29;36.55;99773.33;1952242;90;28924;-64
2021/07/28 07:51:45;;;;;;;21.02;12.37;;;;;;;36.45;36.04;99773.83;1907851;91;31122;-65
2021/07/28 07:54:54;;;;;;;15.55;8.05;;;;;;;36.72;35.96;99770.77;1949721;91;33593;-65
2021/07/28 07:58:02;;;;;;;12.15;7.80;;;;;;;36.79;35.78;99770.84;1970834;90;29348;-65
2021/07/28 08:01:15;;;;;;;16.25;10.05;;;;;;;36.86;35.55;99769.23;1970783;90;28053;-65
2021/07/28 08:04:23;;;;;;;15.70;10.30;;;;;;;37.27;35.67;99773.53;1929197;92;28675;-65
2021/07/28 08:07:32;;;;;;;17.25;7.75;;;;;;;37.65;34.68;99775.22;1948888;90;30960;-66
2021/07/28 08:10:40;;;;;;;15.83;7.50;;;;;;;37.91;34.99;99772.59;1973447;90;33027;-65
2021/07/28 08:13:48;;;;;;;10.35;7.08;;;;;;;38.32;34.28;99762.13;1970197;90;29375;-66
2021/07/28 08:16:50;;;;;;;10.50;7.08;;;;;;;38.65;33.33;99765.61;1948316;90;27287;-64
2021/07/28 08:19:52;;;;;;;9.15;7.37;;;;;;;38.85;33.15;99763.45;1974003;90;33050;-65
2021/07/28 08:22:55;;;;;;;10.82;6.53;;;;;;;39.18;32.90;99758.95;1974106;90;31024;-67
2021/07/28 08:26:00;;;;;;;12.18;7.22;;;;;;;39.48;32.75;99755.87;1970848;90;33018;-66
2021/07/28 08:29:08;;;;;;;14.58;6.83;;;;;;;39.62;31.99;99767.34;1973771;90;29344;-65
2021/07/28 08:32:17;;;;;;;18.65;7.00;;;;;;;39.66;32.15;99765.09;1970760;90;27523;-65
2021/07/28 08:35:22;;;;;;;15.10;7.15;;;;;;;39.57;31.68;99760.34;1971216;90;28676;-65
2021/07/28 08:38:26;;;;;;;13.05;7.00;;;;;;;39.34;31.62;99769.06;1974019;90;31029;-65
2021/07/28 08:41:30;;;;;;;14.73;7.30;;;;;;;39.00;31.84;99772.98;1973683;90;32920;-65
2021/07/28 08:44:36;;;;;;;15.13;6.92;;;;;;;38.74;31.98;99775.70;1973492;90;29421;-65
2021/07/28 08:47:44;;;;;;;12.07;7.15;;;;;;;38.47;31.99;99768.95;1971350;90;27898;-65
2021/07/28 08:50:50;;;;;;;14.15;7.12;;;;;;;38.10;32.39;99772.13;1973658;90;28641;-66
2021/07/28 08:53:59;;;;;;;12.73;7.28;;;;;;;37.86;32.58;99780.95;1941691;90;31061;-66
2021/07/28 08:57:03;;;;;;;8.33;6.62;;;;;;;37.88;33.00;99775.06;1960619;90;32996;-66
2021/07/28 09:00:12;;;;;;;12.13;6.95;;;;;;;37.91;32.41;99778.75;1924013;92;28151;-65
2021/07/28 09:03:22;;;;;;;13.38;7.47;;;;;;;37.62;32.46;99781.92;1923766;92;28178;-65
2021/07/28 09:06:33;;;;;;;15.32;7.53;;;;;;;37.14;32.74;99774.27;1926630;92;28720;-64
2021/07/28 09:09:57;;;;;;;12.80;6.83;;;;;;;36.75;33.04;99775.26;1924277;91;31207;-65
2021/07/28 09:13:05;;;;;;;12.65;7.45;;;;;;;36.41;33.49;99774.02;1890889;93;35395;-65
2021/07/28 09:16:18;;;;;;;11.75;6.47;;;;;;;36.11;33.68;99771.16;1891575;93;29341;-65
2021/07/28 09:19:46;;;;;;;13.30;7.05;;;;;;;35.94;34.05;99776.77;1891229;93;27941;-65
2021/07/28 09:22:57;;;;;;;15.32;8.15;;;;;;;35.76;34.39;99777.90;1891080;93;29347;-65
2021/07/28 09:26:05;;;;;;;18.82;6.55;;;;;;;35.65;34.48;99776.07;1871630;93;31069;-65
2021/07/28 09:29:25;;;;;;;11.10;6.92;;;;;;;35.64;34.70;99771.06;1893487;92;33497;-65
2021/07/28 09:32:35;;;;;;;14.20;6.28;;;;;;;35.71;34.83;99768.09;1894408;93;29513;-65
2021/07/28 09:36:04;;;;;;;9.08;6.67;;;;;;;35.83;34.88;99763.23;1876570;93;27944;-65
2021/07/28 09:39:24;;;;;;;10.40;5.65;;;;;;;35.85;34.65;99762.44;1894453;92;28040;-65
2021/07/28 09:42:29;;;;;;;6.75;5.53;;;;;;;35.81;34.87;99761.25;1895355;90;31060;-65
2021/07/28 09:45:31;;;;;;;7.85;6.10;;;;;;;35.82;34.66;99764.34;1963595;90;32973;-65
2021/07/28 09:48:42;;;;;;;12.53;6.30;;;;;;;35.84;34.74;99769.11;1924887;92;30392;-65
2021/07/28 09:51:51;;;;;;;11.18;6.40;;;;;;;35.81;34.62;99766.83;1904470;90;28141;-65
2021/07/28 09:54:57;;;;;;;13.28;5.95;;;;;;;35.82;34.79;99762.12;1926689;90;28738;-64
2021/07/28 09:58:03;;;;;;;8.65;6.15;;;;;;;36.02;34.80;99765.19;1924465;92;31058;-65
2021/07/28 10:01:05;;;;;;;10.58;5.90;;;;;;;36.22;34.96;99773.53;1926573;91;33229;-65
2021/07/28 10:04:08;;;;;;;10.18;5.53;;;;;;;36.30;34.40;99768.90;1926866;90;29320;-65
2021/07/28 10:07:10;;;;;;;13.48;6.47;;;;;;;36.34;34.44;99764.46;1925553;92;28109;-66
2021/07/28 10:10:13;;;;;;;9.93;5.47;;;;;;;36.35;34.06;99761.13;1926428;92;28690;-66
2021/07/28 10:13:17;;;;;;;7.97;5.83;;;;;;;36.24;33.81;99766.31;1927123;92;31034;-66
2021/07/28 10:16:19;;;;;;;14.98;6.37;;;;;;;35.92;33.10;99753.02;1926705;90;32962;-66
2021/07/28 10:19:28;;;;;;;8.63;5.72;;;;;;;35.85;33.07;99752.68;1943097;90;29500;-66
2021/07/28 10:22:33;;;;;;;9.65;6.45;;;;;;;35.77;33.11;99747.53;1941748;90;27911;-65
2021/07/28 10:25:36;;;;;;;8.20;5.42;;;;;;;35.72;32.90;99751.09;1944231;90;28680;-66
2021/07/28 10:28:41;;;;;;;11.15;5.50;;;;;;;35.70;33.23;99749.68;1962988;90;31099;-65
2021/07/28 10:31:50;;;;;;;15.23;6.45;;;;;;;35.80;32.95;99744.23;1963243;90;33064;-66
2021/07/28 10:35:01;;;;;;;7.97;6.17;;;;;;;35.88;33.00;99738.77;1960218;90;29706;-66
2021/07/28 10:38:12;;;;;;;7.20;5.55;;;;;;;36.06;33.40;99733.47;1952038;87;27860;-65
2021/07/28 10:41:42;;;;;;;13.40;5.58;;;;;;;36.17;32.86;99730.22;1961599;87;28667;-65
2021/07/28 10:45:03;;;;;;;9.33;5.80;;;;;;;36.21;32.86;99729.17;1960416;90;31562;-66
2021/07/28 10:48:13;;;;;;;12.40;5.60;;;;;;;36.23;32.60;99723.62;1908443;93;33035;-66
2021/07/28 10:51:53;;;;;;;6.43;5.83;;;;;;;36.49;33.19;99726.70;1911291;93;29934;-66
2021/07/28 10:55:01;;;;;;;7.60;5.53;;;;;;;36.49;33.19;99726.70;1921566;92;27880;-65
2021/07/28 10:58:29;;;;;;;8.43;6.05;;;;;;;36.59;33.43;99720.39;1867156;95;28700;-65
2021/07/28 11:01:55;;;;;;;10.65;6.12;;;;;;;36.55;32.53;99724.84;1864004;95;31134;-65
2021/07/28 11:05:27;;;;;;;10.20;5.87;;;;;;;36.29;32.65;99724.52;1864328;94;32979;-66
2021/07/28 11:08:36;;;;;;;14.05;5.85;;;;;;;35.88;32.75;99719.25;1863044;95;29330;-65
2021/07/28 11:11:50;;;;;;;12.10;5.55;;;;;;;35.47;32.70;99723.71;1866334;95;28002;-66
2021/07/28 11:14:59;;;;;;;;;;;;;;;35.10;33.33;99718.11;1848177;95;28685;-66
2021/07/28 11:18:04;;;;;;;10.35;5.97;;;;;;;34.91;33.69;99706.37;1864333;95;31067;-65
2021/07/28 11:21:26;;;;;;;7.25;5.30;;;;;;;34.72;34.05;99710.48;1864381;95;33058;-65
2021/07/28 11:24:33;;;;;;;15.72;5.87;;;;;;;34.54;33.99;99705.44;1881428;92;27955;-65
2021/07/28 11:27:41;;;;;;;7.25;5.92;;;;;;;34.20;34.08;99707.53;1952760;90;27846;-65
2021/07/28 11:31:13;;;;;;;15.88;5.78;;;;;;;34.09;34.52;99699.53;1952193;90;29155;-65
2021/07/28 11:37:49;;;;;;;10.88;5.67;;;;;;;34.00;34.88;99695.47;2070496;84;33041;-63
2021/07/28 11:41:03;;;;;;;8.25;5.42;;;;;;;34.04;35.20;99695.81;2070463;84;29357;-64
2021/07/28 11:44:08;;;;;;;7.80;5.40;;;;;;;34.04;35.23;99695.28;2070625;85;27820;-64
2021/07/28 11:47:26;;;;;;;13.88;6.05;;;;;;;33.89;35.26;99684.68;2070385;84;28648;-64
2021/07/28 11:50:41;;;;;;;11.45;6.80;;;;;;;33.91;35.75;99694.18;2069871;84;31078;-64
2021/07/28 11:53:49;;;;;;;6.40;5.67;;;;;;;33.93;35.62;99687.80;2070352;84;32981;-64
2021/07/28 11:56:56;;;;;;;7.50;5.67;;;;;;;33.95;35.70;99687.02;2070355;85;29394;-64
2021/07/28 12:00:34;;;;;;;6.62;5.50;;;;;;;33.96;35.15;99690.09;2070057;84;27927;-64
2021/07/28 12:04:03;;;;;;;6.03;5.33;;;;;;;33.88;35.16;99686.30;2028482;87;28662;-64
2021/07/28 12:07:17;;;;;;;8.80;5.53;;;;;;;33.76;34.64;99681.59;2027911;87;31362;-64
2021/07/28 12:10:25;;;;;;;6.67;4.97;;;;;;;33.67;34.57;99694.19;2028370;87;33173;-64
2021/07/28 12:13:51;;;;;;;6.47;5.17;;;;;;;33.56;34.65;99689.50;2028501;87;29339;-64
2021/07/28 12:17:06;;;;;;;7.05;4.62;;;;;;;33.39;35.17;99697.72;2028465;87;27980;-64
2021/07/28 12:20:16;;;;;;;7.25;4.87;;;;;;;33.23;35.51;99700.11;2028528;87;28725;-64
2021/07/28 12:23:30;;;;;;;5.50;4.72;;;;;;;33.07;35.82;99702.20;2028465;87;31017;-64
2021/07/28 12:26:50;;;;;;;7.37;4.87;;;;;;;32.87;36.46;99697.31;2028508;87;32950;-64
2021/07/28 12:30:20;;;;;;;11.93;5.35;;;;;;;32.70;36.53;99695.72;1971941;87;29333;-64
2021/07/28 12:33:27;;;;;;;8.80;5.05;;;;;;;32.59;36.89;99704.86;2028472;87;27924;-64
2021/07/28 12:36:32;;;;;;;7.05;5.22;;;;;;;32.62;36.87;99690.53;1982833;88;28548;-64
2021/07/28 12:39:38;;;;;;;5.47;4.97;;;;;;;32.73;36.63;99687.48;2008005;88;31071;-65
2021/07/28 12:42:47;;;;;;;8.58;4.65;;;;;;;32.90;36.64;99686.27;2008036;88;32984;-65
2021/07/28 12:46:01;;;;;;;9.85;5.37;;;;;;;32.99;36.36;99684.84;1996669;88;29337;-65
2021/07/28 12:49:05;;;;;;;6.62;4.42;;;;;;;33.11;36.20;99684.83;2008033;86;27827;-64
2021/07/28 12:52:11;;;;;;;7.22;5.10;;;;;;;33.26;36.19;99682.14;2007670;88;28643;-64
2021/07/28 12:55:16;;;;;;;7.45;5.00;;;;;;;33.27;35.97;99681.89;2007301;88;30726;-65
2021/07/28 12:58:25;;;;;;;14.90;5.72;;;;;;;33.32;36.00;99679.77;2006861;88;33016;-64
2021/07/28 13:01:33;;;;;;;7.60;5.25;;;;;;;33.35;35.98;99684.84;2007613;87;29332;-64
2021/07/28 13:04:39;;;;;;;6.83;5.05;;;;;;;33.30;35.55;99684.19;2007388;87;27973;-64
2021/07/28 13:07:52;;;;;;;7.42;6.65;;;;;;;33.31;35.79;99679.46;2007124;88;29171;-64
2021/07/28 13:10:52;;;;;;;8.35;4.70;;;;;;;33.45;35.89;99680.92;2007097;87;31204;-64
2021/07/28 13:13:58;;;;;;;8.33;4.97;;;;;;;33.53;36.02;99681.09;2007677;87;32948;-64
2021/07/28 13:17:03;;;;;;;9.05;5.17;;;;;;;33.67;35.76;99680.86;2007885;88;29499;-64
2021/07/28 13:20:15;;;;;;;5.62;5.00;;;;;;;33.75;34.97;99677.69;2007904;87;28179;-64
2021/07/28 13:23:21;;;;;;;5.62;4.72;;;;;;;33.84;35.15;99671.20;2007675;86;28684;-64
2021/07/28 13:26:26;;;;;;;7.33;4.85;;;;;;;34.01;34.77;99667.11;2007940;87;31710;-64
2021/07/28 13:29:35;;;;;;;6.00;4.95;;;;;;;34.11;34.34;99670.64;2007805;87;33631;-64
2021/07/28 13:32:42;;;;;;;5.80;5.22;;;;;;;34.13;33.82;99673.50;2007861;87;29343;-63
2021/07/28 13:35:47;;;;;;;8.43;5.17;;;;;;;34.07;33.48;99668.38;2018034;84;27798;-64
2021/07/28 13:38:52;;;;;;;4.60;4.15;;;;;;;33.99;33.42;99672.10;2091070;84;28718;-64
2021/07/28 13:42:01;;;;;;;5.90;4.75;;;;;;;33.94;33.54;99674.20;2091623;84;31103;-64
2021/07/28 13:45:14;;;;;;;8.45;4.55;;;;;;;33.94;33.64;99674.20;2063557;84;32987;-63
2021/07/28 13:48:20;;;;;;;5.95;4.75;;;;;;;34.01;33.80;99671.28;2091300;84;29380;-64
2021/07/28 13:51:23;;;;;;;6.62;5.40;;;;;;;34.07;33.61;99664.74;2094536;84;27740;-64
2021/07/28 13:54:31;;;;;;;5.55;4.92;;;;;;;34.11;33.76;99664.55;2091075;84;28700;-65
2021/07/28 13:57:37;;;;;;;7.80;4.72;;;;;;;34.17;33.64;99656.59;2091534;84;31070;-64
2021/07/28 14:00:49;;;;;;;5.53;4.75;;;;;;;34.15;33.40;99654.64;2091660;84;32981;-64
2021/07/28 14:03:53;;;;;;;6.70;5.12;;;;;;;34.06;33.48;99661.66;2091787;84;29974;-63
2021/07/28 14:06:59;;;;;;;5.47;4.92;;;;;;;33.95;33.64;99647.28;2091418;84;28041;-64
2021/07/28 14:10:04;;;;;;;7.80;5.00;;;;;;;33.84;33.63;99651.75;2091786;83;28508;-64
2021/07/28 14:13:09;;;;;;;8.48;5.55;;;;;;;33.70;33.73;99654.81;2091605;84;31038;-63
2021/07/28 14:16:14;;;;;;;5.30;4.53;;;;;;;33.66;33.95;99642.50;2091779;84;33055;-63
2021/07/28 14:19:18;;;;;;;5.87;5.05;;;;;;;33.66;34.00;99623.61;2091663;84;29343;-64
2021/07/28 14:22:25;;;;;;;8.50;5.40;;;;;;;33.61;33.99;99607.13;2092051;84;27796;-63
2021/07/28 14:25:32;;;;;;;11.93;5.60;;;;;;;33.57;34.41;99621.20;2091663;84;28683;-63
2021/07/28 14:28:36;;;;;;;7.95;6.03;;;;;;;33.48;34.69;99642.95;2091487;83;31092;-63
2021/07/28 14:31:42;;;;;;;7.47;5.47;;;;;;;33.27;34.69;99644.94;2091921;84;32961;-63
2021/07/28 14:34:48;;;;;;;10.45;5.25;;;;;;;33.01;35.04;99641.02;2091425;83;29337;-64
2021/07/28 14:37:53;;;;;;;8.13;5.67;;;;;;;32.85;35.53;99642.59;2076672;84;27845;-64